Terminal Aerodrome Forecast
Issued by NWS

Home | Current Version | Previous Version | Graphics & Text | Print | Product List | Glossary On
Versions: 1 2 3 4 5 6 7 8 9 10 11 12 13 14 15 16 17 18 19 20 21 22 23 24
142
FTUS41 KCLE 280529
TAFFDY
TAF
KFDY 280529Z 2806/2906 17004KT P6SM SCT120 BKN200
      TEMPO 2807/2809 5SM BR
     FM280900 VRB03KT 6SM BR FEW007 SCT200
      TEMPO 2809/2813 3SM BR SCT007 BKN010
     FM281500 24005KT P6SM SCT030 BKN200
     FM282000 26005KT P6SM VCTS SCT040CB BKN120
     FM290000 35005KT P6SM SCT040 BKN120=

USA.gov is the U.S. government's official web portal to all federal, state and local government web resources and services.